createdAt,value
2022-09-29T00:00:39.369Z,3.95
2022-09-29T00:03:07.352Z,3.60
2022-09-29T00:05:34.355Z,4.63
2022-09-29T00:08:02.322Z,5.13
2022-09-29T00:10:30.369Z,3.85
2022-09-29T00:12:57.245Z,5.50
2022-09-29T00:15:24.351Z,3.58
2022-09-29T00:18:12.686Z,3.65
2022-09-29T00:20:38.454Z,4.60
2022-09-29T00:23:05.459Z,5.07
2022-09-29T00:25:32.456Z,6.13
2022-09-29T00:27:59.514Z,4.32
2022-09-29T00:30:26.734Z,4.38
2022-09-29T00:32:53.701Z,5.07
2022-09-29T00:35:20.862Z,4.50
2022-09-29T00:37:47.870Z,3.83
2022-09-29T00:40:14.837Z,3.65
2022-09-29T00:42:43.317Z,3.80
2022-09-29T00:45:18.701Z,4.40
2022-09-29T00:50:33.133Z,3.95
2022-09-29T00:53:02.948Z,7.10
2022-09-29T00:55:41.920Z,3.65
2022-09-29T00:58:17.827Z,4.22
2022-09-29T01:00:45.207Z,5.10
2022-09-29T01:03:17.326Z,4.93
2022-09-29T01:05:49.017Z,3.53
2022-09-29T01:08:41.297Z,3.47
2022-09-29T01:11:11.346Z,6.32
2022-09-29T01:13:39.573Z,4.03
2022-09-29T01:16:06.682Z,3.75
2022-09-29T01:18:34.805Z,5.15
2022-09-29T01:21:33.961Z,4.18
2022-09-29T01:24:28.368Z,5.95
2022-09-29T01:27:14.357Z,3.97
2022-09-29T01:30:00.032Z,4.15
2022-09-29T01:32:37.699Z,4.05
2022-09-29T01:35:26.212Z,7.93
2022-09-29T01:38:23.453Z,3.95
2022-09-29T01:41:05.677Z,5.10
2022-09-29T01:43:43.215Z,5.28
2022-09-29T01:46:21.315Z,6.28
2022-09-29T01:48:56.709Z,4.60
2022-09-29T01:51:32.218Z,4.32
2022-09-29T01:54:05.896Z,5.70
2022-09-29T01:56:56.444Z,4.53
2022-09-29T01:59:46.282Z,6.10
2022-09-29T02:02:20.507Z,4.32
2022-09-29T02:04:53.823Z,5.20
2022-09-29T02:07:31.645Z,5.75
2022-09-29T02:10:04.121Z,5.90
2022-09-29T02:12:36.519Z,5.95
2022-09-29T02:15:09.702Z,6.53
2022-09-29T02:17:40.965Z,5.65
2022-09-29T02:20:11.114Z,5.85
2022-09-29T02:22:38.722Z,5.47
2022-09-29T02:25:08.970Z,6.38
2022-09-29T02:27:36.558Z,6.53
2022-09-29T02:30:04.598Z,6.15
2022-09-29T02:32:33.941Z,6.72
2022-09-29T02:35:03.273Z,5.97
2022-09-29T02:38:15.028Z,5.28
2022-09-29T02:41:07.392Z,4.60
2022-09-29T02:43:37.248Z,5.70
2022-09-29T02:46:24.638Z,6.03
2022-09-29T02:49:16.105Z,5.00
2022-09-29T02:51:53.459Z,5.15
2022-09-29T02:54:32.176Z,5.40
2022-09-29T02:57:05.616Z,5.82
2022-09-29T03:00:06.319Z,5.28
2022-09-29T03:02:33.572Z,5.90
2022-09-29T03:05:00.585Z,6.55
2022-09-29T03:07:27.389Z,6.82
2022-09-29T03:09:54.299Z,6.47
2022-09-29T03:12:21.801Z,6.30
2022-09-29T03:14:48.700Z,5.80
2022-09-29T03:17:15.865Z,4.78
2022-09-29T03:19:42.982Z,5.95
2022-09-29T03:22:09.876Z,6.47
2022-09-29T03:24:37.107Z,5.97
2022-09-29T03:27:04.507Z,5.82
2022-09-29T03:29:31.392Z,5.40
2022-09-29T03:32:00.327Z,6.20
2022-09-29T03:34:27.354Z,4.82
2022-09-29T03:36:55.103Z,5.80
2022-09-29T03:39:22.191Z,6.60
2022-09-29T03:41:48.984Z,5.80
2022-09-29T03:44:16.329Z,18.55
2022-09-29T03:46:44.034Z,6.65
2022-09-29T03:49:11.775Z,6.25
2022-09-29T03:51:39.611Z,6.30
2022-09-29T03:54:07.093Z,6.38
2022-09-29T03:56:34.660Z,6.40
2022-09-29T03:59:01.479Z,5.20
2022-09-29T04:01:28.437Z,6.97
2022-09-29T04:03:55.278Z,6.72
2022-09-29T04:06:22.769Z,5.85
2022-09-29T04:08:49.900Z,5.32
2022-09-29T04:11:17.460Z,6.32
2022-09-29T04:13:44.307Z,6.00
2022-09-29T04:16:11.575Z,7.15
2022-09-29T04:18:38.536Z,6.20
2022-09-29T04:21:07.584Z,5.65
2022-09-29T04:23:34.857Z,7.57
2022-09-29T04:26:02.455Z,5.28
2022-09-29T04:28:34.268Z,5.70
2022-09-29T04:31:01.578Z,7.65
2022-09-29T04:33:30.047Z,5.80
2022-09-29T04:35:58.041Z,6.50
2022-09-29T04:38:25.196Z,5.82
2022-09-29T04:40:52.173Z,6.05
2022-09-29T04:43:19.612Z,6.50
2022-09-29T04:45:46.606Z,6.45
2022-09-29T04:48:14.116Z,6.03
2022-09-29T04:50:41.004Z,8.00
2022-09-29T04:53:08.391Z,9.57
2022-09-29T04:55:37.843Z,6.88
2022-09-29T04:58:05.176Z,7.57
2022-09-29T05:00:32.857Z,5.53
2022-09-29T05:03:00.886Z,4.45
2022-09-29T05:05:27.927Z,7.25
2022-09-29T05:07:54.982Z,4.78
2022-09-29T05:10:22.137Z,4.43
2022-09-29T05:12:50.352Z,4.90
2022-09-29T05:15:23.587Z,5.15
2022-09-29T05:17:52.987Z,5.65
2022-09-29T05:20:19.809Z,6.47
2022-09-29T05:22:46.946Z,7.70
2022-09-29T05:25:14.208Z,6.18
2022-09-29T05:27:41.344Z,10.25
2022-09-29T05:30:08.947Z,9.15
2022-09-29T05:32:36.218Z,6.22
2022-09-29T05:35:04.262Z,7.63
2022-09-29T05:37:31.207Z,5.82
2022-09-29T05:39:59.068Z,6.35
2022-09-29T05:42:27.714Z,6.65
2022-09-29T05:44:54.657Z,8.35
2022-09-29T05:47:24.396Z,6.32
2022-09-29T05:49:51.372Z,7.00
2022-09-29T05:52:18.441Z,7.05
2022-09-29T05:54:45.657Z,7.70
2022-09-29T05:57:12.577Z,6.68
2022-09-29T05:59:39.584Z,6.68
2022-09-29T06:02:06.505Z,7.20
2022-09-29T06:04:36.386Z,6.85
2022-09-29T06:07:06.864Z,7.38
2022-09-29T06:09:36.163Z,5.97
2022-09-29T06:12:03.626Z,6.15
2022-09-29T06:14:30.549Z,8.68
2022-09-29T06:16:57.508Z,7.97
2022-09-29T06:19:24.349Z,6.53
2022-09-29T06:21:51.243Z,5.97
2022-09-29T06:24:18.139Z,5.88
2022-09-29T06:26:45.206Z,4.75
2022-09-29T06:29:12.247Z,4.70
2022-09-29T06:31:39.470Z,4.90
2022-09-29T06:34:06.721Z,6.88
2022-09-29T06:37:05.566Z,6.22
2022-09-29T06:39:32.474Z,4.85
2022-09-29T06:42:01.109Z,4.90
2022-09-29T06:44:30.005Z,5.65
2022-09-29T06:46:57.917Z,5.07
2022-09-29T06:49:25.418Z,6.43
2022-09-29T06:51:53.698Z,6.97
2022-09-29T06:54:25.117Z,5.35
2022-09-29T06:56:53.800Z,5.78
2022-09-29T06:59:21.032Z,6.25
2022-09-29T07:01:51.038Z,5.60
2022-09-29T07:04:20.543Z,5.32
2022-09-29T07:06:48.030Z,5.72
2022-09-29T07:09:18.269Z,6.47
2022-09-29T07:11:48.119Z,4.80
2022-09-29T07:14:16.577Z,6.93
2022-09-29T07:16:44.210Z,5.10
2022-09-29T07:19:11.092Z,5.78
2022-09-29T07:21:37.929Z,6.38
2022-09-29T07:24:04.942Z,7.00
2022-09-29T07:26:32.886Z,6.50
2022-09-29T07:29:01.078Z,5.72
2022-09-29T07:31:30.231Z,7.57
2022-09-29T07:33:58.811Z,7.00
2022-09-29T07:36:25.755Z,17.35
2022-09-29T07:38:52.987Z,14.55
2022-09-29T07:41:22.008Z,13.05
2022-09-29T07:43:49.693Z,14.77
2022-09-29T07:46:17.867Z,9.90
2022-09-29T07:48:44.989Z,7.20
2022-09-29T07:51:15.796Z,10.20
2022-09-29T07:53:42.679Z,7.32
2022-09-29T07:56:12.971Z,5.80
2022-09-29T08:01:10.746Z,5.65
2022-09-29T08:03:39.260Z,4.55
2022-09-29T08:06:10.243Z,6.07
2022-09-29T08:08:43.197Z,5.57
2022-09-29T08:11:29.062Z,5.15
2022-09-29T08:13:59.744Z,6.35
2022-09-29T08:16:27.144Z,7.15
2022-09-29T08:18:55.074Z,5.97
2022-09-29T08:21:21.928Z,6.63
2022-09-29T08:23:49.546Z,4.40
2022-09-29T08:26:26.809Z,5.10
2022-09-29T08:29:07.725Z,5.28
2022-09-29T08:31:38.337Z,5.25
2022-09-29T08:34:06.906Z,6.22
2022-09-29T08:36:34.633Z,4.72
2022-09-29T08:39:01.532Z,4.80
2022-09-29T08:41:28.682Z,4.82
2022-09-29T08:44:20.530Z,4.80
2022-09-29T08:47:09.284Z,5.13
2022-09-29T08:49:42.168Z,5.28
2022-09-29T08:52:35.407Z,5.03
2022-09-29T08:55:21.687Z,4.68
2022-09-29T08:57:58.096Z,4.50
2022-09-29T09:00:48.561Z,4.50
2022-09-29T09:03:45.394Z,4.45
2022-09-29T09:06:18.962Z,4.60
2022-09-29T09:09:08.856Z,4.75
2022-09-29T09:11:57.527Z,4.78
2022-09-29T09:14:36.122Z,4.30
2022-09-29T09:17:20.868Z,4.00
2022-09-29T09:20:12.334Z,4.05
2022-09-29T09:23:00.208Z,4.70
2022-09-29T09:25:35.710Z,4.25
2022-09-29T09:28:13.891Z,3.63
2022-09-29T09:31:03.110Z,4.03
2022-09-29T09:33:46.380Z,4.85
2022-09-29T09:36:17.290Z,4.93
2022-09-29T09:39:14.501Z,3.08
2022-09-29T09:41:45.153Z,3.97
2022-09-29T09:44:38.579Z,4.90
2022-09-29T09:47:17.560Z,4.32
2022-09-29T09:49:50.916Z,5.60
2022-09-29T09:52:22.986Z,3.88
2022-09-29T09:54:55.126Z,3.78
2022-09-29T09:57:54.906Z,4.50
2022-09-29T10:00:30.785Z,4.30
2022-09-29T10:03:02.120Z,6.10
2022-09-29T10:05:39.937Z,5.63
2022-09-29T10:08:10.526Z,4.75
2022-09-29T10:10:56.512Z,4.70
2022-09-29T10:13:30.010Z,3.97
2022-09-29T10:16:00.460Z,4.72
2022-09-29T10:18:48.777Z,6.38
2022-09-29T10:21:31.350Z,4.80
2022-09-29T10:24:03.115Z,4.97
2022-09-29T10:26:43.486Z,5.43
2022-09-29T10:29:29.195Z,5.40
2022-09-29T10:32:10.668Z,5.53
2022-09-29T10:34:43.701Z,5.10
2022-09-29T10:37:35.787Z,5.70
2022-09-29T10:40:23.907Z,5.43
2022-09-29T10:42:53.467Z,4.90
2022-09-29T10:45:29.700Z,5.78
2022-09-29T10:47:58.958Z,5.35
2022-09-29T10:50:34.965Z,5.53
2022-09-29T10:53:19.552Z,6.40
2022-09-29T10:55:53.280Z,5.00
2022-09-29T10:58:44.722Z,4.40
2022-09-29T11:01:19.887Z,4.32
2022-09-29T11:03:54.753Z,5.28
2022-09-29T11:06:28.062Z,5.30
2022-09-29T11:09:04.250Z,4.97
2022-09-29T11:11:32.338Z,4.63
2022-09-29T11:14:00.392Z,4.53
2022-09-29T11:16:31.839Z,3.97
2022-09-29T11:19:11.063Z,4.45
2022-09-29T11:21:50.005Z,4.57
2022-09-29T11:24:35.463Z,4.32
2022-09-29T11:27:40.620Z,4.25
2022-09-29T11:30:19.878Z,4.78
2022-09-29T11:32:58.253Z,3.70
2022-09-29T11:35:39.533Z,3.30
2022-09-29T11:38:40.358Z,3.65
2022-09-29T11:41:16.622Z,5.40
2022-09-29T11:43:51.958Z,3.63
2022-09-29T11:47:03.339Z,4.07
2022-09-29T11:49:58.576Z,3.80
2022-09-29T11:52:27.311Z,3.83
2022-09-29T11:55:21.621Z,4.20
2022-09-29T11:58:06.174Z,4.35
2022-09-29T12:01:00.371Z,4.97
2022-09-29T12:03:50.479Z,3.67
2022-09-29T12:06:33.368Z,4.47
2022-09-29T12:09:18.282Z,4.10
2022-09-29T12:12:23.166Z,4.10
2022-09-29T12:15:00.372Z,3.80
2022-09-29T12:17:31.328Z,4.22
2022-09-29T12:20:04.059Z,3.60
2022-09-29T12:22:33.307Z,4.30
2022-09-29T12:25:12.289Z,3.75
2022-09-29T12:27:42.849Z,3.65
2022-09-29T12:30:16.073Z,3.78
2022-09-29T12:33:06.590Z,3.90
2022-09-29T12:35:42.913Z,4.57
2022-09-29T12:38:17.385Z,3.37
2022-09-29T12:40:52.721Z,5.10
2022-09-29T12:43:42.395Z,3.70
2022-09-29T12:46:31.895Z,4.85
2022-09-29T12:49:08.130Z,2.90
2022-09-29T12:51:50.052Z,4.43
2022-09-29T12:54:21.611Z,4.90
2022-09-29T12:57:04.503Z,3.78
2022-09-29T12:59:38.532Z,3.70
2022-09-29T13:02:44.320Z,4.10
2022-09-29T13:05:24.984Z,3.53
2022-09-29T13:07:57.977Z,4.05
2022-09-29T13:10:46.101Z,4.47
2022-09-29T13:13:31.757Z,3.47
2022-09-29T13:16:04.437Z,4.40
2022-09-29T13:19:00.056Z,3.45
2022-09-29T13:21:55.180Z,3.70
2022-09-29T13:24:36.445Z,3.90
2022-09-29T13:27:13.559Z,3.70
2022-09-29T13:30:14.555Z,4.00
2022-09-29T13:32:47.886Z,4.35
2022-09-29T13:35:21.558Z,4.00
2022-09-29T13:38:11.880Z,3.85
2022-09-29T13:40:38.918Z,4.40
2022-09-29T13:43:05.804Z,4.50
2022-09-29T13:45:34.810Z,4.03
2022-09-29T13:48:23.989Z,4.70
2022-09-29T13:50:53.142Z,4.55
2022-09-29T13:53:22.929Z,4.32
2022-09-29T13:56:05.763Z,4.40
2022-09-29T13:59:00.570Z,4.45
2022-09-29T14:01:36.796Z,4.77
2022-09-29T14:04:43.803Z,5.03
2022-09-29T14:07:34.487Z,5.47
2022-09-29T14:10:07.896Z,4.20
2022-09-29T14:12:35.606Z,3.73
2022-09-29T14:15:03.289Z,4.68
2022-09-29T14:17:36.284Z,4.50
2022-09-29T14:20:07.764Z,4.25
2022-09-29T14:22:37.861Z,4.85
2022-09-29T14:25:08.079Z,4.75
2022-09-29T14:27:39.938Z,5.30
2022-09-29T14:30:33.132Z,5.00
2022-09-29T14:33:09.123Z,5.43
2022-09-29T14:35:43.616Z,3.80
2022-09-29T14:38:28.459Z,4.28
2022-09-29T14:41:07.235Z,4.85
2022-09-29T14:43:56.136Z,4.20
2022-09-29T14:46:54.059Z,4.47
2022-09-29T14:50:07.129Z,5.10
2022-09-29T14:52:43.027Z,4.63
2022-09-29T14:55:12.485Z,3.88
2022-09-29T14:58:11.209Z,3.90
2022-09-29T15:00:56.412Z,4.55
2022-09-29T15:03:58.038Z,3.67
2022-09-29T15:06:28.162Z,3.30
2022-09-29T15:09:17.404Z,3.03
2022-09-29T15:11:53.428Z,3.45
2022-09-29T15:14:27.729Z,3.30
2022-09-29T15:17:22.570Z,3.67
2022-09-29T15:20:11.327Z,2.80
2022-09-29T15:22:53.736Z,2.88
2022-09-29T15:25:29.906Z,3.75
2022-09-29T15:28:10.797Z,2.78
2022-09-29T15:30:38.613Z,3.50
2022-09-29T15:33:35.706Z,3.10
2022-09-29T15:36:15.710Z,3.22
2022-09-29T15:38:42.635Z,3.63
2022-09-29T15:41:16.887Z,3.20
2022-09-29T15:44:00.880Z,3.92
2022-09-29T15:46:37.222Z,3.10
2022-09-29T15:49:10.751Z,3.65
2022-09-29T15:51:38.719Z,3.15
2022-09-29T15:54:10.484Z,3.92
2022-09-29T15:56:56.913Z,4.55
2022-09-29T15:59:50.249Z,4.60
2022-09-29T16:02:38.693Z,5.10
2022-09-29T16:05:11.912Z,4.05
2022-09-29T16:07:48.832Z,3.75
2022-09-29T16:10:19.076Z,5.00
2022-09-29T16:13:00.039Z,4.03
2022-09-29T16:15:43.621Z,4.57
2022-09-29T16:18:44.489Z,4.93
2022-09-29T16:21:14.866Z,3.70
2022-09-29T16:24:07.017Z,4.97
2022-09-29T16:26:33.974Z,4.88
2022-09-29T16:29:09.946Z,4.32
2022-09-29T16:31:42.279Z,3.10
2022-09-29T16:34:21.672Z,3.83
2022-09-29T16:36:49.382Z,2.72
2022-09-29T16:39:20.179Z,3.03
2022-09-29T16:41:52.811Z,3.70
2022-09-29T16:44:28.225Z,3.92
2022-09-29T16:47:04.204Z,3.63
2022-09-29T16:52:11.253Z,2.78
2022-09-29T16:54:44.189Z,4.05
2022-09-29T16:57:21.774Z,4.13
2022-09-29T16:59:55.610Z,2.95
2022-09-29T17:02:23.780Z,3.08
2022-09-29T17:04:54.951Z,3.72
2022-09-29T17:07:24.856Z,2.10
2022-09-29T17:09:55.946Z,4.90
2022-09-29T17:12:24.742Z,3.38
2022-09-29T17:14:51.671Z,3.65
2022-09-29T17:17:28.452Z,2.15
2022-09-29T17:19:56.546Z,2.50
2022-09-29T17:22:28.860Z,3.88
2022-09-29T17:24:56.453Z,3.45
2022-09-29T17:27:42.831Z,2.47
2022-09-29T17:30:11.804Z,2.97
2022-09-29T17:32:38.869Z,2.85
2022-09-29T17:35:07.690Z,2.63
2022-09-29T17:37:34.848Z,2.63
2022-09-29T17:40:03.710Z,1.48
2022-09-29T17:42:31.101Z,3.97
2022-09-29T17:44:59.416Z,3.45
2022-09-29T17:47:29.081Z,2.35
2022-09-29T17:49:56.748Z,3.35
2022-09-29T17:52:23.547Z,3.70
2022-09-29T17:54:50.533Z,3.10
2022-09-29T17:57:27.897Z,3.50
2022-09-29T17:59:55.034Z,2.83
2022-09-29T18:02:24.294Z,2.85
2022-09-29T18:04:51.251Z,3.03
2022-09-29T18:07:18.199Z,2.67
2022-09-29T18:09:45.286Z,5.18
2022-09-29T18:12:12.311Z,3.17
2022-09-29T18:14:40.070Z,2.67
2022-09-29T18:17:06.906Z,3.08
2022-09-29T18:19:40.135Z,2.50
2022-09-29T18:22:08.112Z,3.53
2022-09-29T18:24:35.365Z,5.53
2022-09-29T18:27:03.402Z,4.47
2022-09-29T18:29:32.045Z,4.85
2022-09-29T18:31:59.481Z,2.33
2022-09-29T18:34:26.980Z,2.92
2022-09-29T18:36:53.826Z,3.38
2022-09-29T18:39:20.803Z,3.45
2022-09-29T18:41:47.670Z,3.00
2022-09-29T18:44:17.824Z,3.65
2022-09-29T18:46:44.797Z,3.63
2022-09-29T18:49:13.990Z,6.72
2022-09-29T18:51:41.347Z,2.88
2022-09-29T18:54:08.432Z,5.10
2022-09-29T18:56:35.364Z,3.60
2022-09-29T18:59:05.654Z,3.97
2022-09-29T19:04:01.097Z,3.72
2022-09-29T19:06:28.824Z,4.38
2022-09-29T19:08:56.268Z,3.90
2022-09-29T19:11:25.902Z,4.47
2022-09-29T19:13:55.343Z,5.60
2022-09-29T19:16:24.322Z,5.30
2022-09-29T19:18:51.567Z,4.70
2022-09-29T19:21:18.604Z,5.72
2022-09-29T19:23:48.525Z,4.47
2022-09-29T19:26:19.416Z,4.57
2022-09-29T19:28:48.127Z,5.63
2022-09-29T19:31:19.461Z,4.28
2022-09-29T19:33:47.603Z,4.35
2022-09-29T19:36:17.768Z,5.70
2022-09-29T19:38:45.221Z,4.93
2022-09-29T19:41:22.008Z,5.13
2022-09-29T19:43:50.329Z,4.55
2022-09-29T19:46:19.495Z,5.53
2022-09-29T19:48:46.985Z,3.50
2022-09-29T19:51:33.990Z,5.60
2022-09-29T19:54:14.598Z,4.07
2022-09-29T19:56:44.712Z,4.20
2022-09-29T19:59:14.059Z,3.83
2022-09-29T20:01:45.398Z,3.78
2022-09-29T20:04:14.470Z,5.32
2022-09-29T20:06:41.912Z,5.13
2022-09-29T20:09:09.380Z,5.85
2022-09-29T20:11:39.247Z,4.82
2022-09-29T20:14:08.154Z,4.43
2022-09-29T20:16:38.272Z,5.85
2022-09-29T20:19:06.446Z,4.70
2022-09-29T20:21:34.771Z,5.97
2022-09-29T20:24:01.685Z,4.85
2022-09-29T20:26:28.811Z,6.75
2022-09-29T20:28:55.722Z,5.68
2022-09-29T20:31:23.643Z,6.13
2022-09-29T20:33:51.729Z,5.10
2022-09-29T20:36:18.745Z,4.47
2022-09-29T20:38:50.851Z,5.10
2022-09-29T20:41:18.096Z,4.57
2022-09-29T20:43:55.422Z,5.25
2022-09-29T20:46:27.401Z,5.90
2022-09-29T20:48:56.635Z,7.70
2022-09-29T20:51:25.507Z,6.53
2022-09-29T20:53:55.737Z,6.18
2022-09-29T20:56:31.470Z,5.97
2022-09-29T20:58:59.973Z,5.93
2022-09-29T21:01:31.578Z,7.15
2022-09-29T21:04:08.078Z,8.00
2022-09-29T21:06:37.638Z,5.47
2022-09-29T21:09:07.395Z,6.28
2022-09-29T21:11:39.768Z,5.47
2022-09-29T21:14:09.699Z,5.00
2022-09-29T21:16:37.990Z,6.25
2022-09-29T21:19:05.201Z,6.55
2022-09-29T21:21:33.105Z,5.00
2022-09-29T21:24:02.812Z,5.40
2022-09-29T21:26:31.337Z,5.07
2022-09-29T21:29:00.315Z,6.68
2022-09-29T21:31:32.561Z,5.40
2022-09-29T21:34:03.055Z,7.40
2022-09-29T21:36:32.302Z,8.45
2022-09-29T21:39:00.369Z,5.93
2022-09-29T21:41:32.125Z,5.93
2022-09-29T21:44:02.202Z,6.63
2022-09-29T21:46:32.032Z,5.13
2022-09-29T21:49:00.942Z,5.70
2022-09-29T21:51:34.889Z,7.32
2022-09-29T21:54:02.847Z,5.20
2022-09-29T21:56:32.606Z,5.55
2022-09-29T21:59:00.277Z,6.47
2022-09-29T22:01:27.766Z,5.22
2022-09-29T22:03:57.275Z,5.50
2022-09-29T22:06:27.569Z,7.30
2022-09-29T22:11:25.590Z,6.18
2022-09-29T22:13:55.961Z,8.50
2022-09-29T22:16:25.907Z,6.35
2022-09-29T22:19:18.326Z,4.78
2022-09-29T22:21:40.691Z,6.55
2022-09-29T22:24:07.798Z,6.18
2022-09-29T22:26:34.936Z,4.68
2022-09-29T22:29:03.788Z,5.30
2022-09-29T22:31:31.776Z,5.55
2022-09-29T22:34:01.580Z,6.20
2022-09-29T22:36:33.901Z,5.50
2022-09-29T22:39:02.072Z,4.55
2022-09-29T22:41:29.392Z,5.35
2022-09-29T22:43:59.174Z,5.13
2022-09-29T22:46:29.773Z,5.55
2022-09-29T22:48:57.825Z,6.90
2022-09-29T22:51:25.665Z,7.70
2022-09-29T22:53:52.595Z,5.93
2022-09-29T22:56:28.095Z,8.05
2022-09-29T22:58:58.882Z,5.05
2022-09-29T23:01:28.619Z,5.55
2022-09-29T23:03:55.873Z,6.18
2022-09-29T23:06:26.822Z,4.80
2022-09-29T23:08:55.207Z,4.40
2022-09-29T23:11:22.298Z,5.07
2022-09-29T23:13:49.194Z,4.93
2022-09-29T23:16:17.273Z,5.63
2022-09-29T23:18:45.973Z,5.63
2022-09-29T23:21:17.736Z,5.07
2022-09-29T23:23:45.498Z,6.15
2022-09-29T23:26:12.460Z,5.45
2022-09-29T23:28:39.744Z,5.00
2022-09-29T23:31:08.205Z,6.75
2022-09-29T23:33:35.234Z,7.38
2022-09-29T23:36:11.603Z,6.38
2022-09-29T23:38:58.735Z,6.05
2022-09-29T23:41:29.768Z,4.15
2022-09-29T23:43:58.868Z,6.35
2022-09-29T23:46:30.089Z,5.57
2022-09-29T23:49:01.275Z,6.20
2022-09-29T23:51:32.329Z,5.20
2022-09-29T23:54:00.159Z,4.43
2022-09-29T23:56:28.423Z,6.00
2022-09-29T23:58:56.837Z,5.90
